createdAt,value
2019-04-10T00:02:20.174Z,31.65
2019-04-10T00:04:49.521Z,31.05
2019-04-10T00:07:19.805Z,32.38
2019-04-10T00:09:49.610Z,32.53
2019-04-10T00:12:18.863Z,32.03
2019-04-10T00:14:48.383Z,32.05
2019-04-10T00:17:18.421Z,31.42
2019-04-10T00:19:47.942Z,33.58
2019-04-10T00:22:17.985Z,32.48
2019-04-10T00:24:48.283Z,33.53
2019-04-10T00:27:18.596Z,31.77
2019-04-10T00:29:48.780Z,32.70
2019-04-10T00:32:18.135Z,31.68
2019-04-10T00:34:47.662Z,31.77
2019-04-10T00:37:24.434Z,31.82
2019-04-10T00:39:48.024Z,31.97
2019-04-10T00:42:17.247Z,32.95
2019-04-10T00:44:46.459Z,32.15
2019-04-10T00:47:15.738Z,30.48
2019-04-10T00:49:44.911Z,32.08
2019-04-10T00:52:14.425Z,32.73
2019-04-10T00:54:43.686Z,32.95
2019-04-10T00:57:12.951Z,32.20
2019-04-10T00:59:42.213Z,31.05
2019-04-10T01:02:12.196Z,32.03
2019-04-10T01:04:42.546Z,31.52
2019-04-10T01:07:12.666Z,31.87
2019-04-10T01:09:42.096Z,31.85
2019-04-10T01:12:11.868Z,31.48
2019-04-10T01:14:42.102Z,31.90
2019-04-10T01:17:11.775Z,32.25
2019-04-10T01:19:41.867Z,29.75
2019-04-10T01:22:11.142Z,30.12
2019-04-10T01:27:20.611Z,30.45
2019-04-10T01:29:49.755Z,30.68
2019-04-10T01:32:19.441Z,29.92
2019-04-10T01:34:49.703Z,29.92
2019-04-10T01:37:19.095Z,30.10
2019-04-10T01:39:48.630Z,28.73
2019-04-10T01:42:18.674Z,30.82
2019-04-10T01:44:48.968Z,30.17
2019-04-10T01:47:19.246Z,28.57
2019-04-10T01:49:48.474Z,30.37
2019-04-10T01:52:18.595Z,30.15
2019-04-10T01:54:47.749Z,29.20
2019-04-10T01:57:16.960Z,29.32
2019-04-10T01:59:46.194Z,28.87
2019-04-10T02:02:42.937Z,30.40
2019-04-10T02:05:12.341Z,28.83
2019-04-10T02:07:42.354Z,28.17
2019-04-10T02:10:12.126Z,29.52
2019-04-10T02:12:43.674Z,28.50
2019-04-10T02:15:15.739Z,30.65
2019-04-10T02:17:44.780Z,30.10
2019-04-10T02:20:14.598Z,29.70
2019-04-10T02:22:43.932Z,28.83
2019-04-10T02:25:13.804Z,28.42
2019-04-10T02:27:43.154Z,29.90
2019-04-10T02:30:15.089Z,29.57
2019-04-10T02:32:47.659Z,30.17
2019-04-10T02:35:17.285Z,28.57
2019-04-10T02:37:49.361Z,29.50
2019-04-10T02:40:17.002Z,28.20
2019-04-10T02:42:47.348Z,28.42
2019-04-10T02:45:17.504Z,29.00
2019-04-10T02:47:47.627Z,28.25
2019-04-10T02:50:18.647Z,27.82
2019-04-10T02:52:50.314Z,26.42
2019-04-10T02:55:18.937Z,29.37
2019-04-10T02:57:49.613Z,26.30
2019-04-10T03:00:20.288Z,28.80
2019-04-10T03:02:51.958Z,28.15
2019-04-10T03:05:23.022Z,27.82
2019-04-10T03:07:52.668Z,28.35
2019-04-10T03:10:30.134Z,26.90
2019-04-10T03:12:54.334Z,27.77
2019-04-10T03:15:25.126Z,27.58
2019-04-10T03:17:54.543Z,28.20
2019-04-10T03:20:24.623Z,28.57
2019-04-10T03:22:53.904Z,25.20
2019-04-10T03:25:23.086Z,26.35
2019-04-10T03:27:52.589Z,27.15
2019-04-10T03:30:23.453Z,25.23
2019-04-10T03:33:11.423Z,26.12
2019-04-10T03:35:41.348Z,26.80
2019-04-10T03:38:10.548Z,26.93
2019-04-10T03:40:39.703Z,27.50
2019-04-10T03:43:09.713Z,27.30
2019-04-10T03:45:39.091Z,28.00
2019-04-10T03:48:08.513Z,26.57
2019-04-10T03:50:37.754Z,26.77
2019-04-10T03:53:07.603Z,27.25
2019-04-10T03:55:36.970Z,24.05
2019-04-10T03:58:07.132Z,26.05
2019-04-10T04:00:36.531Z,26.00
2019-04-10T04:03:06.503Z,26.70
2019-04-10T04:05:35.778Z,26.52
2019-04-10T04:08:05.497Z,25.35
2019-04-10T04:10:35.103Z,26.60
2019-04-10T04:13:05.968Z,25.40
2019-04-10T04:15:35.837Z,24.72
2019-04-10T04:18:05.173Z,24.75
2019-04-10T04:20:35.006Z,26.35
2019-04-10T04:23:05.373Z,23.67
2019-04-10T04:25:34.694Z,23.47
2019-04-10T04:28:04.641Z,24.18
2019-04-10T04:30:34.129Z,24.85
2019-04-10T04:33:04.656Z,24.27
2019-04-10T04:35:34.638Z,25.15
2019-04-10T04:38:03.947Z,25.25
2019-04-10T04:40:33.538Z,24.30
2019-04-10T04:43:03.666Z,26.45
2019-04-10T04:45:33.446Z,25.20
2019-04-10T04:48:02.822Z,23.70
2019-04-10T04:50:32.049Z,23.25
2019-04-10T04:53:02.173Z,23.00
2019-04-10T04:55:31.574Z,22.82
2019-04-10T04:58:01.930Z,23.95
2019-04-10T05:00:32.020Z,24.72
2019-04-10T05:03:01.884Z,25.08
2019-04-10T05:05:31.356Z,23.30
2019-04-10T05:08:05.411Z,23.00
2019-04-10T05:10:36.000Z,22.45
2019-04-10T05:13:06.134Z,23.12
2019-04-10T05:15:35.436Z,21.93
2019-04-10T05:18:04.703Z,23.45
2019-04-10T05:20:43.921Z,23.10
2019-04-10T05:23:06.116Z,23.47
2019-04-10T05:25:35.991Z,22.48
2019-04-10T05:28:05.820Z,22.30
2019-04-10T05:30:35.673Z,22.30
2019-04-10T05:33:06.208Z,22.52
2019-04-10T05:35:36.379Z,21.95
2019-04-10T05:38:05.772Z,21.87
2019-04-10T05:40:34.916Z,22.13
2019-04-10T05:43:04.228Z,21.33
2019-04-10T05:45:33.894Z,22.37
2019-04-10T05:48:03.333Z,21.90
2019-04-10T05:50:32.618Z,20.95
2019-04-10T05:53:02.336Z,21.82
2019-04-10T05:55:31.552Z,21.90
2019-04-10T05:58:01.677Z,21.85
2019-04-10T06:00:31.136Z,19.85
2019-04-10T06:03:00.508Z,20.10
2019-04-10T06:05:29.944Z,21.15
2019-04-10T06:07:59.377Z,19.90
2019-04-10T06:10:28.685Z,20.00
2019-04-10T06:12:58.423Z,19.77
2019-04-10T06:15:28.726Z,20.43
2019-04-10T06:17:58.748Z,19.40
2019-04-10T06:20:29.171Z,20.50
2019-04-10T06:22:59.119Z,21.87
2019-04-10T06:25:29.390Z,20.80
2019-04-10T06:27:59.457Z,19.27
2019-04-10T06:30:28.682Z,18.70
2019-04-10T06:32:57.979Z,18.50
2019-04-10T06:35:28.190Z,20.70
2019-04-10T06:37:58.748Z,20.03
2019-04-10T06:40:29.410Z,19.10
2019-04-10T06:42:59.462Z,18.60
2019-04-10T06:45:28.874Z,19.07
2019-04-10T06:47:58.516Z,19.33
2019-04-10T06:50:29.421Z,18.33
2019-04-10T06:52:58.931Z,18.83
2019-04-10T06:55:28.333Z,19.20
2019-04-10T06:57:59.143Z,18.70
2019-04-10T07:00:28.688Z,20.03
2019-04-10T07:02:58.774Z,17.90
2019-04-10T07:05:37.982Z,17.87
2019-04-10T07:08:10.064Z,17.57
2019-04-10T07:10:43.771Z,18.70
2019-04-10T07:13:04.336Z,18.43
2019-04-10T07:15:32.069Z,19.07
2019-04-10T07:18:01.225Z,18.93
2019-04-10T07:20:31.561Z,17.43
2019-04-10T07:23:01.117Z,18.23
2019-04-10T07:25:30.318Z,17.50
2019-04-10T07:28:01.214Z,20.50
2019-04-10T07:30:30.533Z,18.30
2019-04-10T07:32:59.768Z,17.20
2019-04-10T07:35:33.740Z,18.10
2019-04-10T07:37:59.846Z,18.00
2019-04-10T07:40:33.069Z,19.37
2019-04-10T07:42:59.918Z,18.97
2019-04-10T07:45:29.151Z,18.53
2019-04-10T07:47:58.345Z,18.90
2019-04-10T07:50:28.185Z,18.83
2019-04-10T07:52:57.616Z,18.20
2019-04-10T07:55:27.001Z,18.20
2019-04-10T07:57:57.203Z,18.20
2019-04-10T08:00:26.992Z,18.50
2019-04-10T08:02:57.507Z,17.77
2019-04-10T08:05:27.167Z,19.87
2019-04-10T08:07:57.461Z,18.03
2019-04-10T08:10:26.851Z,18.40
2019-04-10T08:12:56.441Z,17.70
2019-04-10T08:15:25.585Z,19.30
2019-04-10T08:17:56.060Z,19.00
2019-04-10T08:20:26.108Z,19.00
2019-04-10T08:22:55.430Z,19.17
2019-04-10T08:25:24.867Z,17.90
2019-04-10T08:27:54.334Z,19.97
2019-04-10T08:30:23.795Z,19.93
2019-04-10T08:33:00.175Z,19.30
2019-04-10T08:35:25.026Z,20.17
2019-04-10T08:37:54.366Z,20.07
2019-04-10T08:40:23.561Z,19.60
2019-04-10T08:42:52.697Z,20.33
2019-04-10T08:45:22.153Z,21.40
2019-04-10T08:47:51.422Z,20.10
2019-04-10T08:50:21.753Z,18.03
2019-04-10T08:52:51.144Z,20.23
2019-04-10T08:55:20.375Z,19.10
2019-04-10T08:57:50.295Z,20.40
2019-04-10T09:00:20.560Z,19.17
2019-04-10T09:02:50.540Z,19.53
2019-04-10T09:05:19.839Z,19.73
2019-04-10T09:07:49.038Z,20.53
2019-04-10T09:10:18.607Z,19.53
2019-04-10T09:12:47.816Z,20.40
2019-04-10T09:15:18.054Z,19.93
2019-04-10T09:17:47.491Z,19.63
2019-04-10T09:20:16.840Z,19.97
2019-04-10T09:23:10.372Z,19.10
2019-04-10T09:25:17.872Z,20.00
2019-04-10T09:27:47.304Z,19.33
2019-04-10T09:30:16.513Z,19.30
2019-04-10T09:33:20.980Z,19.03
2019-04-10T09:35:44.708Z,20.40
2019-04-10T09:38:14.624Z,20.00
2019-04-10T09:40:44.681Z,19.30
2019-04-10T09:43:14.344Z,20.70
2019-04-10T09:45:43.931Z,20.03
2019-04-10T09:48:13.167Z,20.47
2019-04-10T09:50:42.318Z,20.43
2019-04-10T09:53:11.557Z,20.47
2019-04-10T09:55:40.855Z,21.73
2019-04-10T09:58:10.001Z,19.27
2019-04-10T10:00:40.238Z,21.73
2019-04-10T10:03:09.786Z,20.10
2019-04-10T10:05:39.225Z,20.67
2019-04-10T10:08:09.105Z,18.60
2019-04-10T10:10:39.782Z,20.77
2019-04-10T10:13:09.626Z,20.50
2019-04-10T10:15:38.987Z,20.60
2019-04-10T10:18:08.856Z,19.67
2019-04-10T10:20:38.237Z,21.30
2019-04-10T10:23:07.564Z,23.33
2019-04-10T10:25:37.470Z,20.60
2019-04-10T10:28:07.001Z,19.83
2019-04-10T10:30:36.347Z,18.40
2019-04-10T10:33:05.655Z,20.23
2019-04-10T10:35:35.532Z,20.53
2019-04-10T10:38:07.282Z,19.40
2019-04-10T10:40:36.783Z,19.20
2019-04-10T10:43:05.928Z,20.20
2019-04-10T10:45:35.127Z,19.50
2019-04-10T10:48:08.200Z,19.50
2019-04-10T10:50:35.182Z,20.00
2019-04-10T10:53:04.376Z,20.20
2019-04-10T10:56:00.086Z,20.63
2019-04-10T10:58:30.029Z,19.27
2019-04-10T11:00:59.816Z,18.17
2019-04-10T11:03:29.938Z,19.40
2019-04-10T11:06:00.405Z,18.47
2019-04-10T11:08:30.958Z,20.20
2019-04-10T11:11:00.863Z,20.03
2019-04-10T11:13:30.867Z,19.00
2019-04-10T11:16:03.845Z,18.60
2019-04-10T11:18:31.080Z,18.70
2019-04-10T11:21:04.608Z,18.13
2019-04-10T11:23:31.191Z,19.23
2019-04-10T11:26:00.464Z,18.73
2019-04-10T11:28:30.706Z,18.13
2019-04-10T11:31:01.455Z,18.87
2019-04-10T11:33:31.113Z,19.33
2019-04-10T11:36:01.486Z,18.07
2019-04-10T11:38:30.907Z,19.50
2019-04-10T11:41:00.297Z,17.80
2019-04-10T11:43:30.262Z,18.10
2019-04-10T11:46:02.615Z,17.97
2019-04-10T11:48:31.198Z,17.13
2019-04-10T11:51:03.049Z,17.70
2019-04-10T11:53:36.206Z,17.47
2019-04-10T11:56:05.432Z,16.80
2019-04-10T11:58:37.205Z,17.63
2019-04-10T12:01:08.552Z,15.73
2019-04-10T12:03:37.111Z,16.07
2019-04-10T12:06:08.256Z,16.47
2019-04-10T12:11:13.637Z,16.37
2019-04-10T12:13:39.414Z,14.77
2019-04-10T12:16:09.280Z,16.30
2019-04-10T12:18:38.630Z,15.37
2019-04-10T12:21:07.804Z,14.10
2019-04-10T12:23:37.026Z,15.63
2019-04-10T12:26:07.521Z,15.77
2019-04-10T12:28:36.819Z,15.30
2019-04-10T12:31:06.106Z,16.33
2019-04-10T12:33:35.953Z,14.53
2019-04-10T12:36:07.787Z,15.20
2019-04-10T12:38:38.080Z,16.27
2019-04-10T12:41:08.843Z,15.80
2019-04-10T12:43:38.183Z,15.63
2019-04-10T12:46:10.747Z,14.90
2019-04-10T12:48:41.038Z,14.43
2019-04-10T12:51:11.870Z,16.20
2019-04-10T12:53:41.558Z,15.30
2019-04-10T12:56:10.747Z,16.23
2019-04-10T12:58:39.919Z,17.20
2019-04-10T13:01:09.349Z,16.27
2019-04-10T13:03:38.989Z,16.50
2019-04-10T13:06:09.440Z,17.43
2019-04-10T13:08:52.498Z,17.87
2019-04-10T13:11:10.239Z,18.10
2019-04-10T13:13:39.375Z,16.47
2019-04-10T13:16:09.822Z,16.27
2019-04-10T13:18:39.294Z,14.20
2019-04-10T13:21:08.514Z,17.00
2019-04-10T13:23:38.527Z,17.97
2019-04-10T13:26:10.568Z,18.23
2019-04-10T13:28:40.052Z,19.43
2019-04-10T13:31:09.389Z,19.83
2019-04-10T13:33:38.759Z,19.43
2019-04-10T13:36:08.381Z,19.07
2019-04-10T13:38:38.345Z,18.77
2019-04-10T13:41:08.133Z,20.83
2019-04-10T13:43:38.070Z,19.27
2019-04-10T13:46:07.481Z,20.20
2019-04-10T13:48:37.496Z,20.20
2019-04-10T13:51:07.494Z,19.27
2019-04-10T13:53:37.701Z,19.03
2019-04-10T13:56:07.100Z,19.17
2019-04-10T13:58:36.367Z,20.30
2019-04-10T14:01:09.312Z,19.23
2019-04-10T14:03:41.207Z,18.83
2019-04-10T14:06:09.793Z,18.00
2019-04-10T14:08:58.617Z,19.00
2019-04-10T14:11:11.076Z,18.77
2019-04-10T14:13:44.224Z,17.90
2019-04-10T14:16:14.737Z,17.40
2019-04-10T14:18:45.166Z,18.00
2019-04-10T14:21:16.039Z,18.17
2019-04-10T14:23:48.294Z,21.20
2019-04-10T14:26:40.818Z,16.57
2019-04-10T14:28:59.832Z,17.13
2019-04-10T14:31:34.268Z,16.83
2019-04-10T14:34:04.835Z,18.37
2019-04-10T14:36:34.291Z,19.27
2019-04-10T14:39:13.135Z,19.60
2019-04-10T14:41:36.325Z,17.97
2019-04-10T14:44:06.139Z,19.17
2019-04-10T14:46:36.047Z,19.23
2019-04-10T14:49:05.400Z,18.40
2019-04-10T14:51:34.754Z,19.30
2019-04-10T14:54:05.789Z,17.10
2019-04-10T14:56:35.119Z,18.27
2019-04-10T14:59:04.286Z,19.57
2019-04-10T15:01:33.635Z,17.77
2019-04-10T15:04:02.930Z,19.07
2019-04-10T15:06:33.157Z,17.93
2019-04-10T15:09:03.986Z,17.20
2019-04-10T15:11:33.378Z,17.17
2019-04-10T15:14:03.365Z,16.90
2019-04-10T15:16:33.538Z,16.27
2019-04-10T15:19:04.524Z,17.67
2019-04-10T15:21:34.665Z,16.60
2019-04-10T15:24:04.658Z,19.37
2019-04-10T15:26:33.965Z,17.10
2019-04-10T15:29:03.752Z,16.80
2019-04-10T15:31:33.321Z,16.73
2019-04-10T15:34:03.558Z,17.37
2019-04-10T15:36:33.951Z,16.87
2019-04-10T15:39:03.896Z,18.60
2019-04-10T15:41:33.154Z,16.17
2019-04-10T15:44:02.309Z,17.67
2019-04-10T15:46:31.439Z,15.63
2019-04-10T15:49:01.270Z,17.43
2019-04-10T15:51:30.464Z,17.17
2019-04-10T15:54:01.128Z,17.30
2019-04-10T15:56:31.422Z,18.20
2019-04-10T15:59:00.723Z,16.97
2019-04-10T16:01:30.857Z,16.63
2019-04-10T16:04:01.132Z,17.43
2019-04-10T16:06:31.391Z,17.17
2019-04-10T16:09:00.976Z,17.87
2019-04-10T16:11:41.780Z,17.30
2019-04-10T16:14:20.929Z,18.10
2019-04-10T16:16:59.806Z,17.80
2019-04-10T16:19:47.103Z,17.50
2019-04-10T16:22:37.877Z,18.20
2019-04-10T16:25:30.776Z,17.50
2019-04-10T16:28:02.226Z,16.57
2019-04-10T16:30:32.839Z,18.60
2019-04-10T16:33:02.910Z,14.70
2019-04-10T16:35:35.133Z,16.70
2019-04-10T16:38:05.183Z,16.73
2019-04-10T16:40:36.118Z,17.00
2019-04-10T16:43:07.890Z,17.30
2019-04-10T16:45:38.376Z,16.23
2019-04-10T16:48:08.630Z,16.87
2019-04-10T16:50:38.369Z,17.13
2019-04-10T16:53:07.804Z,17.33
2019-04-10T16:55:37.107Z,18.00
2019-04-10T16:58:07.456Z,17.80
2019-04-10T17:00:37.734Z,18.30
2019-04-10T17:03:07.150Z,17.53
2019-04-10T17:05:37.646Z,17.80
2019-04-10T17:08:07.744Z,18.27
2019-04-10T17:10:38.718Z,16.90
2019-04-10T17:13:10.739Z,16.90
2019-04-10T17:15:40.166Z,16.53
2019-04-10T17:18:12.224Z,17.37
2019-04-10T17:20:41.471Z,16.37
2019-04-10T17:23:12.157Z,14.80
2019-04-10T17:25:42.339Z,14.63
2019-04-10T17:28:12.404Z,14.73
2019-04-10T17:30:42.282Z,17.80
2019-04-10T17:33:13.029Z,15.03
2019-04-10T17:35:43.440Z,15.55
2019-04-10T17:38:14.236Z,17.90
2019-04-10T17:40:48.775Z,15.25
2019-04-10T17:43:14.816Z,15.50
2019-04-10T17:45:44.881Z,15.43
2019-04-10T17:48:15.636Z,14.28
2019-04-10T17:50:48.069Z,17.25
2019-04-10T17:53:18.474Z,16.62
2019-04-10T17:55:49.557Z,16.23
2019-04-10T17:58:21.351Z,16.15
2019-04-10T18:00:55.752Z,15.78
2019-04-10T18:03:39.655Z,15.08
2019-04-10T18:05:57.190Z,15.90
2019-04-10T18:08:28.319Z,15.80
2019-04-10T18:10:58.734Z,16.95
2019-04-10T18:13:28.738Z,15.23
2019-04-10T18:16:00.106Z,15.88
2019-04-10T18:18:32.668Z,15.90
2019-04-10T18:21:02.008Z,16.62
2019-04-10T18:23:32.185Z,16.50
2019-04-10T18:26:02.442Z,18.92
2019-04-10T18:28:33.440Z,18.05
2019-04-10T18:31:02.939Z,15.68
2019-04-10T18:33:39.088Z,15.78
2019-04-10T18:36:08.469Z,15.53
2019-04-10T18:38:40.312Z,16.52
2019-04-10T18:41:10.054Z,15.85
2019-04-10T18:43:40.312Z,15.65
2019-04-10T18:46:13.450Z,18.40
2019-04-10T18:48:45.629Z,15.50
2019-04-10T18:51:16.614Z,15.25
2019-04-10T18:53:46.155Z,15.58
2019-04-10T18:56:16.629Z,15.85
2019-04-10T18:59:05.001Z,15.72
2019-04-10T19:01:52.195Z,16.42
2019-04-10T19:04:49.946Z,15.68
2019-04-10T19:07:19.492Z,15.98
2019-04-10T19:09:49.158Z,14.10
2019-04-10T19:12:18.844Z,14.15
2019-04-10T19:14:48.649Z,14.85
2019-04-10T19:17:19.009Z,14.53
2019-04-10T19:19:48.806Z,13.78
2019-04-10T19:22:20.188Z,13.65
2019-04-10T19:24:50.295Z,15.20
2019-04-10T19:27:20.083Z,12.78
2019-04-10T19:29:49.458Z,14.30
2019-04-10T19:32:25.072Z,18.60
2019-04-10T19:34:54.774Z,15.20
2019-04-10T19:37:25.705Z,15.18
2019-04-10T19:39:56.524Z,13.88
2019-04-10T19:42:27.079Z,15.65
2019-04-10T19:44:56.657Z,14.15
2019-04-10T19:47:26.332Z,15.93
2019-04-10T19:49:56.911Z,13.93
2019-04-10T19:52:26.903Z,14.68
2019-04-10T19:54:56.165Z,16.60
2019-04-10T19:57:25.714Z,17.48
2019-04-10T19:59:55.706Z,17.30
2019-04-10T20:02:27.152Z,14.95
2019-04-10T20:04:56.984Z,12.93
2019-04-10T20:07:27.096Z,13.13
2019-04-10T20:09:56.996Z,13.45
2019-04-10T20:12:26.760Z,13.30
2019-04-10T20:14:57.603Z,13.40
2019-04-10T20:17:26.863Z,12.70
2019-04-10T20:19:59.829Z,13.45
2019-04-10T20:22:30.791Z,13.15
2019-04-10T20:25:02.063Z,12.53
2019-04-10T20:27:36.145Z,13.60
2019-04-10T20:30:07.818Z,12.90
2019-04-10T20:32:38.467Z,12.70
2019-04-10T20:35:08.286Z,13.10
2019-04-10T20:37:38.676Z,13.58
2019-04-10T20:40:09.598Z,13.08
2019-04-10T20:42:38.984Z,12.50
2019-04-10T20:45:09.325Z,13.85
2019-04-10T20:47:41.347Z,12.07
2019-04-10T20:50:11.810Z,12.13
2019-04-10T20:52:43.230Z,13.53
2019-04-10T20:55:13.216Z,12.73
2019-04-10T20:57:43.713Z,12.00
2019-04-10T21:00:20.333Z,12.58
2019-04-10T21:02:50.851Z,12.90
2019-04-10T21:05:20.157Z,12.88
2019-04-10T21:07:50.195Z,13.15
2019-04-10T21:10:19.509Z,16.30
2019-04-10T21:12:48.893Z,11.97
2019-04-10T21:15:19.489Z,12.88
2019-04-10T21:17:51.414Z,12.78
2019-04-10T21:20:20.735Z,12.13
2019-04-10T21:22:49.963Z,12.10
2019-04-10T21:25:19.229Z,12.80
2019-04-10T21:27:50.441Z,13.05
2019-04-10T21:30:37.689Z,12.33
2019-04-10T21:33:24.681Z,13.45
2019-04-10T21:35:54.181Z,12.88
2019-04-10T21:38:23.597Z,12.80
2019-04-10T21:40:52.977Z,13.35
2019-04-10T21:43:22.929Z,14.03
2019-04-10T21:45:52.340Z,13.08
2019-04-10T21:48:22.380Z,12.35
2019-04-10T21:50:51.843Z,11.70
2019-04-10T21:53:21.942Z,12.33
2019-04-10T21:55:51.457Z,11.55
2019-04-10T21:58:21.984Z,11.70
2019-04-10T22:01:01.589Z,11.88
2019-04-10T22:03:31.724Z,11.43
2019-04-10T22:06:19.868Z,12.37
2019-04-10T22:08:58.463Z,11.38
2019-04-10T22:11:28.726Z,10.23
2019-04-10T22:13:57.949Z,12.05
2019-04-10T22:16:28.268Z,11.85
2019-04-10T22:18:58.179Z,12.90
2019-04-10T22:21:27.577Z,12.50
2019-04-10T22:23:56.746Z,12.25
2019-04-10T22:26:25.941Z,13.13
2019-04-10T22:28:55.313Z,12.20
2019-04-10T22:31:25.767Z,11.88
2019-04-10T22:33:55.118Z,13.05
2019-04-10T22:36:24.854Z,11.73
2019-04-10T22:38:54.261Z,11.55
2019-04-10T22:41:30.720Z,12.50
2019-04-10T22:43:57.513Z,11.80
2019-04-10T22:46:27.790Z,14.07
2019-04-10T22:48:57.852Z,12.43
2019-04-10T22:51:27.094Z,13.80
2019-04-10T22:53:57.706Z,12.58
2019-04-10T22:56:27.335Z,12.47
2019-04-10T22:58:57.491Z,12.73
2019-04-10T23:01:31.323Z,12.88
2019-04-10T23:04:01.745Z,12.35
2019-04-10T23:06:31.939Z,12.95
2019-04-10T23:09:02.059Z,14.58
2019-04-10T23:11:37.474Z,13.03
2019-04-10T23:14:02.634Z,14.43
2019-04-10T23:16:32.407Z,12.58
2019-04-10T23:19:01.830Z,12.63
2019-04-10T23:21:31.025Z,11.50
2019-04-10T23:24:03.402Z,13.20
2019-04-10T23:26:33.323Z,12.98
2019-04-10T23:29:02.682Z,13.13
2019-04-10T23:31:31.982Z,13.62
2019-04-10T23:34:01.238Z,14.10
2019-04-10T23:36:30.578Z,13.65
2019-04-10T23:38:59.802Z,13.13
2019-04-10T23:41:29.600Z,13.35
2019-04-10T23:43:59.849Z,12.70
2019-04-10T23:46:30.404Z,14.28
2019-04-10T23:48:59.694Z,13.80
2019-04-10T23:51:29.367Z,14.68
2019-04-10T23:53:58.649Z,13.95
2019-04-10T23:56:27.867Z,16.73
2019-04-10T23:58:58.180Z,15.10
